sensor_id;sensor_type;location;lat;lon;timestamp;P1;durP1;ratioP1;P2;durP2;ratioP2
5585;SDS011;2815;54.094;12.112;2023-03-01T00:00:29;11.00;;;4.78;;
5585;SDS011;2815;54.094;12.112;2023-03-01T00:02:57;11.85;;;5.47;;
5585;SDS011;2815;54.094;12.112;2023-03-01T00:05:26;10.57;;;4.75;;
5585;SDS011;2815;54.094;12.112;2023-03-01T00:07:54;8.73;;;4.53;;
5585;SDS011;2815;54.094;12.112;2023-03-01T00:10:22;8.68;;;4.45;;
5585;SDS011;2815;54.094;12.112;2023-03-01T00:12:50;11.40;;;4.80;;
5585;SDS011;2815;54.094;12.112;2023-03-01T00:15:17;11.02;;;4.97;;
5585;SDS011;2815;54.094;12.112;2023-03-01T00:17:45;10.55;;;4.70;;
5585;SDS011;2815;54.094;12.112;2023-03-01T00:20:13;9.27;;;4.15;;
5585;SDS011;2815;54.094;12.112;2023-03-01T00:22:43;7.57;;;3.85;;
5585;SDS011;2815;54.094;12.112;2023-03-01T00:25:11;11.10;;;4.88;;
5585;SDS011;2815;54.094;12.112;2023-03-01T00:27:39;9.40;;;4.95;;
5585;SDS011;2815;54.094;12.112;2023-03-01T00:30:07;13.90;;;5.25;;
5585;SDS011;2815;54.094;12.112;2023-03-01T00:32:36;10.15;;;4.28;;
5585;SDS011;2815;54.094;12.112;2023-03-01T00:35:04;6.72;;;4.05;;
5585;SDS011;2815;54.094;12.112;2023-03-01T00:37:32;10.48;;;4.28;;
5585;SDS011;2815;54.094;12.112;2023-03-01T00:40:01;7.07;;;4.22;;
5585;SDS011;2815;54.094;12.112;2023-03-01T00:42:32;8.13;;;4.45;;
5585;SDS011;2815;54.094;12.112;2023-03-01T00:45:00;5.93;;;3.75;;
5585;SDS011;2815;54.094;12.112;2023-03-01T00:47:28;7.90;;;4.45;;
5585;SDS011;2815;54.094;12.112;2023-03-01T00:49:56;7.93;;;4.50;;
5585;SDS011;2815;54.094;12.112;2023-03-01T00:52:24;9.88;;;4.40;;
5585;SDS011;2815;54.094;12.112;2023-03-01T00:54:53;9.18;;;4.60;;
5585;SDS011;2815;54.094;12.112;2023-03-01T00:57:23;6.85;;;4.20;;
5585;SDS011;2815;54.094;12.112;2023-03-01T00:59:50;7.68;;;4.20;;
5585;SDS011;2815;54.094;12.112;2023-03-01T01:02:19;7.25;;;3.88;;
5585;SDS011;2815;54.094;12.112;2023-03-01T01:04:48;7.05;;;4.05;;
5585;SDS011;2815;54.094;12.112;2023-03-01T01:07:16;12.20;;;4.65;;
5585;SDS011;2815;54.094;12.112;2023-03-01T01:09:44;8.25;;;4.25;;
5585;SDS011;2815;54.094;12.112;2023-03-01T01:12:12;10.45;;;4.60;;
5585;SDS011;2815;54.094;12.112;2023-03-01T01:14:41;8.07;;;4.28;;
5585;SDS011;2815;54.094;12.112;2023-03-01T01:17:09;7.07;;;4.55;;
5585;SDS011;2815;54.094;12.112;2023-03-01T01:19:37;8.23;;;4.35;;
5585;SDS011;2815;54.094;12.112;2023-03-01T01:22:05;9.95;;;4.40;;
5585;SDS011;2815;54.094;12.112;2023-03-01T01:24:33;7.80;;;4.40;;
5585;SDS011;2815;54.094;12.112;2023-03-01T01:27:01;12.30;;;4.30;;
5585;SDS011;2815;54.094;12.112;2023-03-01T01:29:29;11.30;;;4.38;;
5585;SDS011;2815;54.094;12.112;2023-03-01T01:31:58;10.38;;;4.00;;
5585;SDS011;2815;54.094;12.112;2023-03-01T01:34:26;11.93;;;4.70;;
5585;SDS011;2815;54.094;12.112;2023-03-01T01:36:54;15.63;;;4.40;;
5585;SDS011;2815;54.094;12.112;2023-03-01T01:39:22;10.73;;;4.68;;
5585;SDS011;2815;54.094;12.112;2023-03-01T01:41:50;9.15;;;4.68;;
5585;SDS011;2815;54.094;12.112;2023-03-01T01:44:20;8.77;;;4.60;;
5585;SDS011;2815;54.094;12.112;2023-03-01T01:46:50;8.20;;;4.47;;
5585;SDS011;2815;54.094;12.112;2023-03-01T01:49:24;9.65;;;4.53;;
5585;SDS011;2815;54.094;12.112;2023-03-01T01:51:57;9.93;;;4.90;;
5585;SDS011;2815;54.094;12.112;2023-03-01T01:56:58;9.88;;;4.28;;
5585;SDS011;2815;54.094;12.112;2023-03-01T01:59:28;9.48;;;4.20;;
5585;SDS011;2815;54.094;12.112;2023-03-01T02:01:59;8.98;;;4.68;;
5585;SDS011;2815;54.094;12.112;2023-03-01T02:04:30;7.13;;;4.45;;
5585;SDS011;2815;54.094;12.112;2023-03-01T02:07:00;12.02;;;5.15;;
5585;SDS011;2815;54.094;12.112;2023-03-01T02:09:29;12.55;;;5.68;;
5585;SDS011;2815;54.094;12.112;2023-03-01T02:11:58;17.45;;;6.22;;
5585;SDS011;2815;54.094;12.112;2023-03-01T02:14:26;12.57;;;5.07;;
5585;SDS011;2815;54.094;12.112;2023-03-01T02:16:54;18.95;;;5.65;;
5585;SDS011;2815;54.094;12.112;2023-03-01T02:19:26;10.75;;;5.78;;
5585;SDS011;2815;54.094;12.112;2023-03-01T02:22:05;17.42;;;5.15;;
5585;SDS011;2815;54.094;12.112;2023-03-01T02:24:40;12.88;;;6.03;;
5585;SDS011;2815;54.094;12.112;2023-03-01T02:27:14;11.70;;;5.05;;
5585;SDS011;2815;54.094;12.112;2023-03-01T02:29:45;15.52;;;5.38;;
5585;SDS011;2815;54.094;12.112;2023-03-01T02:32:12;8.88;;;4.68;;
5585;SDS011;2815;54.094;12.112;2023-03-01T02:34:41;12.88;;;5.03;;
5585;SDS011;2815;54.094;12.112;2023-03-01T02:37:10;8.93;;;4.97;;
5585;SDS011;2815;54.094;12.112;2023-03-01T02:39:42;7.63;;;4.40;;
5585;SDS011;2815;54.094;12.112;2023-03-01T02:42:13;9.23;;;4.75;;
5585;SDS011;2815;54.094;12.112;2023-03-01T02:44:42;7.47;;;4.05;;
5585;SDS011;2815;54.094;12.112;2023-03-01T02:47:12;8.27;;;4.15;;
5585;SDS011;2815;54.094;12.112;2023-03-01T02:49:40;10.77;;;5.00;;
5585;SDS011;2815;54.094;12.112;2023-03-01T02:52:23;7.57;;;4.00;;
5585;SDS011;2815;54.094;12.112;2023-03-01T02:54:59;8.25;;;4.32;;
5585;SDS011;2815;54.094;12.112;2023-03-01T02:57:29;8.52;;;4.47;;
5585;SDS011;2815;54.094;12.112;2023-03-01T03:00:01;8.00;;;3.75;;
5585;SDS011;2815;54.094;12.112;2023-03-01T03:02:34;7.60;;;4.00;;
5585;SDS011;2815;54.094;12.112;2023-03-01T03:05:13;9.18;;;4.38;;
5585;SDS011;2815;54.094;12.112;2023-03-01T03:07:44;9.98;;;4.70;;
5585;SDS011;2815;54.094;12.112;2023-03-01T03:10:14;10.13;;;5.32;;
5585;SDS011;2815;54.094;12.112;2023-03-01T03:12:48;8.93;;;4.75;;
5585;SDS011;2815;54.094;12.112;2023-03-01T03:15:18;9.32;;;4.22;;
5585;SDS011;2815;54.094;12.112;2023-03-01T03:17:47;7.07;;;3.97;;
5585;SDS011;2815;54.094;12.112;2023-03-01T03:20:16;8.48;;;4.40;;
5585;SDS011;2815;54.094;12.112;2023-03-01T03:22:47;8.63;;;4.50;;
5585;SDS011;2815;54.094;12.112;2023-03-01T03:25:17;7.20;;;4.25;;
5585;SDS011;2815;54.094;12.112;2023-03-01T03:27:46;8.23;;;4.18;;
5585;SDS011;2815;54.094;12.112;2023-03-01T03:30:16;8.23;;;4.53;;
5585;SDS011;2815;54.094;12.112;2023-03-01T03:32:47;7.95;;;4.72;;
5585;SDS011;2815;54.094;12.112;2023-03-01T03:35:19;10.60;;;4.97;;
5585;SDS011;2815;54.094;12.112;2023-03-01T03:37:48;9.82;;;4.75;;
5585;SDS011;2815;54.094;12.112;2023-03-01T03:40:33;9.90;;;5.30;;
5585;SDS011;2815;54.094;12.112;2023-03-01T03:43:04;9.57;;;4.57;;
5585;SDS011;2815;54.094;12.112;2023-03-01T03:45:33;8.68;;;4.53;;
5585;SDS011;2815;54.094;12.112;2023-03-01T03:48:04;8.02;;;4.40;;
5585;SDS011;2815;54.094;12.112;2023-03-01T03:50:33;10.65;;;4.95;;
5585;SDS011;2815;54.094;12.112;2023-03-01T03:53:02;8.65;;;5.20;;
5585;SDS011;2815;54.094;12.112;2023-03-01T03:55:35;6.35;;;4.32;;
5585;SDS011;2815;54.094;12.112;2023-03-01T03:58:06;8.80;;;4.70;;
5585;SDS011;2815;54.094;12.112;2023-03-01T04:00:37;10.25;;;5.03;;
5585;SDS011;2815;54.094;12.112;2023-03-01T04:03:07;8.88;;;5.03;;
5585;SDS011;2815;54.094;12.112;2023-03-01T04:05:35;8.35;;;4.40;;
5585;SDS011;2815;54.094;12.112;2023-03-01T04:08:04;9.88;;;4.97;;
5585;SDS011;2815;54.094;12.112;2023-03-01T04:10:34;7.75;;;4.43;;
5585;SDS011;2815;54.094;12.112;2023-03-01T04:13:03;8.43;;;4.47;;
5585;SDS011;2815;54.094;12.112;2023-03-01T04:15:31;9.77;;;4.80;;
5585;SDS011;2815;54.094;12.112;2023-03-01T04:18:00;10.52;;;4.75;;
5585;SDS011;2815;54.094;12.112;2023-03-01T04:20:30;8.35;;;4.30;;
5585;SDS011;2815;54.094;12.112;2023-03-01T04:23:00;9.18;;;4.72;;
5585;SDS011;2815;54.094;12.112;2023-03-01T04:25:37;8.27;;;4.38;;
5585;SDS011;2815;54.094;12.112;2023-03-01T04:28:06;9.23;;;4.70;;
5585;SDS011;2815;54.094;12.112;2023-03-01T04:30:34;10.50;;;5.00;;
5585;SDS011;2815;54.094;12.112;2023-03-01T04:33:03;10.65;;;5.15;;
5585;SDS011;2815;54.094;12.112;2023-03-01T04:35:33;10.88;;;4.72;;
5585;SDS011;2815;54.094;12.112;2023-03-01T04:38:02;9.80;;;5.45;;
5585;SDS011;2815;54.094;12.112;2023-03-01T04:40:30;9.65;;;5.20;;
5585;SDS011;2815;54.094;12.112;2023-03-01T04:42:58;13.35;;;6.05;;
5585;SDS011;2815;54.094;12.112;2023-03-01T04:45:26;10.73;;;5.60;;
5585;SDS011;2815;54.094;12.112;2023-03-01T04:47:54;11.13;;;5.20;;
5585;SDS011;2815;54.094;12.112;2023-03-01T04:50:24;10.13;;;4.90;;
5585;SDS011;2815;54.094;12.112;2023-03-01T04:52:54;9.02;;;5.20;;
5585;SDS011;2815;54.094;12.112;2023-03-01T04:55:25;8.67;;;4.93;;
5585;SDS011;2815;54.094;12.112;2023-03-01T04:57:53;10.57;;;5.63;;
5585;SDS011;2815;54.094;12.112;2023-03-01T05:00:22;11.45;;;6.07;;
5585;SDS011;2815;54.094;12.112;2023-03-01T05:02:51;10.60;;;6.10;;
5585;SDS011;2815;54.094;12.112;2023-03-01T05:05:24;15.68;;;6.13;;
5585;SDS011;2815;54.094;12.112;2023-03-01T05:07:55;13.05;;;5.68;;
5585;SDS011;2815;54.094;12.112;2023-03-01T05:10:24;9.80;;;5.65;;
5585;SDS011;2815;54.094;12.112;2023-03-01T05:12:53;11.57;;;6.10;;
5585;SDS011;2815;54.094;12.112;2023-03-01T05:15:20;10.02;;;5.95;;
5585;SDS011;2815;54.094;12.112;2023-03-01T05:17:52;11.35;;;6.22;;
5585;SDS011;2815;54.094;12.112;2023-03-01T05:20:20;11.75;;;6.43;;
5585;SDS011;2815;54.094;12.112;2023-03-01T05:22:50;10.18;;;5.82;;
5585;SDS011;2815;54.094;12.112;2023-03-01T05:25:19;12.00;;;5.57;;
5585;SDS011;2815;54.094;12.112;2023-03-01T05:27:48;11.32;;;6.22;;
5585;SDS011;2815;54.094;12.112;2023-03-01T05:30:16;9.98;;;6.50;;
5585;SDS011;2815;54.094;12.112;2023-03-01T05:32:45;10.50;;;6.68;;
5585;SDS011;2815;54.094;12.112;2023-03-01T05:35:15;13.90;;;6.82;;
5585;SDS011;2815;54.094;12.112;2023-03-01T05:37:45;12.88;;;6.72;;
5585;SDS011;2815;54.094;12.112;2023-03-01T05:40:15;15.93;;;7.55;;
5585;SDS011;2815;54.094;12.112;2023-03-01T05:42:47;17.10;;;7.85;;
5585;SDS011;2815;54.094;12.112;2023-03-01T05:45:16;13.77;;;7.32;;
5585;SDS011;2815;54.094;12.112;2023-03-01T05:47:45;16.45;;;8.45;;
5585;SDS011;2815;54.094;12.112;2023-03-01T05:50:15;15.85;;;7.80;;
5585;SDS011;2815;54.094;12.112;2023-03-01T05:52:45;16.92;;;8.23;;
5585;SDS011;2815;54.094;12.112;2023-03-01T05:55:15;16.65;;;7.82;;
5585;SDS011;2815;54.094;12.112;2023-03-01T05:57:43;16.95;;;7.32;;
5585;SDS011;2815;54.094;12.112;2023-03-01T06:00:14;15.57;;;6.82;;
5585;SDS011;2815;54.094;12.112;2023-03-01T06:02:43;16.17;;;7.40;;
5585;SDS011;2815;54.094;12.112;2023-03-01T06:05:12;18.55;;;7.47;;
5585;SDS011;2815;54.094;12.112;2023-03-01T06:07:41;16.20;;;6.85;;
5585;SDS011;2815;54.094;12.112;2023-03-01T06:10:09;16.02;;;7.65;;
5585;SDS011;2815;54.094;12.112;2023-03-01T06:12:39;14.88;;;6.72;;
5585;SDS011;2815;54.094;12.112;2023-03-01T06:15:10;15.57;;;7.20;;
5585;SDS011;2815;54.094;12.112;2023-03-01T06:17:39;15.93;;;8.02;;
5585;SDS011;2815;54.094;12.112;2023-03-01T06:20:08;12.80;;;7.55;;
5585;SDS011;2815;54.094;12.112;2023-03-01T06:22:38;18.35;;;8.27;;
5585;SDS011;2815;54.094;12.112;2023-03-01T06:25:07;21.50;;;8.88;;
5585;SDS011;2815;54.094;12.112;2023-03-01T06:27:35;19.52;;;8.27;;
5585;SDS011;2815;54.094;12.112;2023-03-01T06:30:04;17.50;;;7.93;;
5585;SDS011;2815;54.094;12.112;2023-03-01T06:32:34;14.65;;;8.10;;
5585;SDS011;2815;54.094;12.112;2023-03-01T06:35:02;17.83;;;7.97;;
5585;SDS011;2815;54.094;12.112;2023-03-01T06:37:31;19.42;;;8.60;;
5585;SDS011;2815;54.094;12.112;2023-03-01T06:39:58;89.25;;;22.38;;
5585;SDS011;2815;54.094;12.112;2023-03-01T06:42:31;154.90;;;34.37;;
5585;SDS011;2815;54.094;12.112;2023-03-01T06:44:58;64.47;;;18.08;;
5585;SDS011;2815;54.094;12.112;2023-03-01T06:47:26;60.25;;;17.33;;
5585;SDS011;2815;54.094;12.112;2023-03-01T06:49:56;32.92;;;12.57;;
5585;SDS011;2815;54.094;12.112;2023-03-01T06:52:24;29.77;;;12.85;;
5585;SDS011;2815;54.094;12.112;2023-03-01T06:54:52;42.92;;;13.95;;
5585;SDS011;2815;54.094;12.112;2023-03-01T06:57:20;39.90;;;14.85;;
5585;SDS011;2815;54.094;12.112;2023-03-01T06:59:48;31.95;;;12.95;;
5585;SDS011;2815;54.094;12.112;2023-03-01T07:02:16;31.42;;;12.77;;
5585;SDS011;2815;54.094;12.112;2023-03-01T07:04:44;32.60;;;13.55;;
5585;SDS011;2815;54.094;12.112;2023-03-01T07:07:13;27.50;;;12.60;;
5585;SDS011;2815;54.094;12.112;2023-03-01T07:09:41;30.10;;;12.55;;
5585;SDS011;2815;54.094;12.112;2023-03-01T07:12:09;31.90;;;13.32;;
5585;SDS011;2815;54.094;12.112;2023-03-01T07:14:37;27.23;;;12.38;;
5585;SDS011;2815;54.094;12.112;2023-03-01T07:17:05;26.17;;;11.93;;
5585;SDS011;2815;54.094;12.112;2023-03-01T07:19:33;28.30;;;12.40;;
5585;SDS011;2815;54.094;12.112;2023-03-01T07:22:02;26.15;;;11.32;;
5585;SDS011;2815;54.094;12.112;2023-03-01T07:24:32;28.30;;;11.98;;
5585;SDS011;2815;54.094;12.112;2023-03-01T07:27:00;30.50;;;12.98;;
5585;SDS011;2815;54.094;12.112;2023-03-01T07:29:28;35.00;;;13.32;;
5585;SDS011;2815;54.094;12.112;2023-03-01T07:31:56;34.22;;;13.40;;
5585;SDS011;2815;54.094;12.112;2023-03-01T07:34:24;34.85;;;13.23;;
5585;SDS011;2815;54.094;12.112;2023-03-01T07:36:52;42.38;;;13.70;;
5585;SDS011;2815;54.094;12.112;2023-03-01T07:39:20;44.72;;;14.88;;
5585;SDS011;2815;54.094;12.112;2023-03-01T07:41:50;40.28;;;13.98;;
5585;SDS011;2815;54.094;12.112;2023-03-01T07:44:21;42.15;;;15.18;;
5585;SDS011;2815;54.094;12.112;2023-03-01T07:46:49;46.22;;;14.52;;
5585;SDS011;2815;54.094;12.112;2023-03-01T07:49:18;39.50;;;15.40;;
5585;SDS011;2815;54.094;12.112;2023-03-01T07:51:46;36.55;;;14.73;;
5585;SDS011;2815;54.094;12.112;2023-03-01T07:54:14;39.15;;;14.73;;
5585;SDS011;2815;54.094;12.112;2023-03-01T07:56:42;40.60;;;17.15;;
5585;SDS011;2815;54.094;12.112;2023-03-01T07:59:11;49.80;;;16.27;;
5585;SDS011;2815;54.094;12.112;2023-03-01T08:01:39;40.42;;;14.40;;
5585;SDS011;2815;54.094;12.112;2023-03-01T08:04:07;50.58;;;15.38;;
5585;SDS011;2815;54.094;12.112;2023-03-01T08:06:36;42.63;;;12.68;;
5585;SDS011;2815;54.094;12.112;2023-03-01T08:09:03;43.88;;;15.35;;
5585;SDS011;2815;54.094;12.112;2023-03-01T08:11:31;36.42;;;13.65;;
5585;SDS011;2815;54.094;12.112;2023-03-01T08:13:59;24.08;;;10.63;;
5585;SDS011;2815;54.094;12.112;2023-03-01T08:16:29;37.53;;;13.30;;
5585;SDS011;2815;54.094;12.112;2023-03-01T08:18:57;30.73;;;12.02;;
5585;SDS011;2815;54.094;12.112;2023-03-01T08:21:27;30.77;;;12.38;;
5585;SDS011;2815;54.094;12.112;2023-03-01T08:23:55;20.85;;;9.57;;
5585;SDS011;2815;54.094;12.112;2023-03-01T08:26:23;38.95;;;12.52;;
5585;SDS011;2815;54.094;12.112;2023-03-01T08:28:51;34.88;;;13.32;;
5585;SDS011;2815;54.094;12.112;2023-03-01T08:31:20;33.13;;;11.93;;
5585;SDS011;2815;54.094;12.112;2023-03-01T08:33:52;39.15;;;13.35;;
5585;SDS011;2815;54.094;12.112;2023-03-01T08:36:24;35.78;;;14.25;;
5585;SDS011;2815;54.094;12.112;2023-03-01T08:38:53;45.63;;;12.95;;
5585;SDS011;2815;54.094;12.112;2023-03-01T08:41:21;28.65;;;12.10;;
5585;SDS011;2815;54.094;12.112;2023-03-01T08:43:49;27.00;;;11.55;;
5585;SDS011;2815;54.094;12.112;2023-03-01T08:46:17;30.52;;;11.40;;
5585;SDS011;2815;54.094;12.112;2023-03-01T08:48:45;27.85;;;11.15;;
5585;SDS011;2815;54.094;12.112;2023-03-01T08:51:14;29.33;;;13.75;;
5585;SDS011;2815;54.094;12.112;2023-03-01T08:53:43;36.28;;;13.80;;
5585;SDS011;2815;54.094;12.112;2023-03-01T08:56:11;33.53;;;11.35;;
5585;SDS011;2815;54.094;12.112;2023-03-01T08:58:39;24.98;;;11.68;;
5585;SDS011;2815;54.094;12.112;2023-03-01T09:01:07;29.70;;;12.80;;
5585;SDS011;2815;54.094;12.112;2023-03-01T09:03:36;29.35;;;11.23;;
5585;SDS011;2815;54.094;12.112;2023-03-01T09:06:04;25.02;;;11.73;;
5585;SDS011;2815;54.094;12.112;2023-03-01T09:08:35;36.83;;;14.20;;
5585;SDS011;2815;54.094;12.112;2023-03-01T09:11:04;42.30;;;14.98;;
5585;SDS011;2815;54.094;12.112;2023-03-01T09:13:33;35.40;;;15.32;;
5585;SDS011;2815;54.094;12.112;2023-03-01T09:16:02;43.08;;;15.38;;
5585;SDS011;2815;54.094;12.112;2023-03-01T09:18:32;44.20;;;16.15;;
5585;SDS011;2815;54.094;12.112;2023-03-01T09:21:01;38.38;;;15.00;;
5585;SDS011;2815;54.094;12.112;2023-03-01T09:26:05;38.72;;;13.20;;
5585;SDS011;2815;54.094;12.112;2023-03-01T09:28:33;46.88;;;14.38;;
5585;SDS011;2815;54.094;12.112;2023-03-01T09:31:01;40.17;;;14.45;;
5585;SDS011;2815;54.094;12.112;2023-03-01T09:33:30;38.53;;;15.13;;
5585;SDS011;2815;54.094;12.112;2023-03-01T09:36:00;38.08;;;15.10;;
5585;SDS011;2815;54.094;12.112;2023-03-01T09:38:29;34.05;;;14.70;;
5585;SDS011;2815;54.094;12.112;2023-03-01T09:40:58;37.38;;;14.40;;
5585;SDS011;2815;54.094;12.112;2023-03-01T09:43:29;43.08;;;14.93;;
5585;SDS011;2815;54.094;12.112;2023-03-01T09:45:59;37.70;;;14.68;;
5585;SDS011;2815;54.094;12.112;2023-03-01T09:48:33;35.90;;;14.05;;
5585;SDS011;2815;54.094;12.112;2023-03-01T09:51:06;34.80;;;14.85;;
5585;SDS011;2815;54.094;12.112;2023-03-01T09:53:40;41.10;;;13.73;;
5585;SDS011;2815;54.094;12.112;2023-03-01T09:56:11;39.25;;;15.05;;
5585;SDS011;2815;54.094;12.112;2023-03-01T09:58:47;37.20;;;14.60;;
5585;SDS011;2815;54.094;12.112;2023-03-01T10:01:23;41.42;;;14.82;;
5585;SDS011;2815;54.094;12.112;2023-03-01T10:04:00;37.60;;;13.75;;
5585;SDS011;2815;54.094;12.112;2023-03-01T10:06:35;42.55;;;14.88;;
5585;SDS011;2815;54.094;12.112;2023-03-01T10:09:05;37.75;;;14.30;;
5585;SDS011;2815;54.094;12.112;2023-03-01T10:11:37;39.75;;;15.48;;
5585;SDS011;2815;54.094;12.112;2023-03-01T10:14:12;42.40;;;15.90;;
5585;SDS011;2815;54.094;12.112;2023-03-01T10:16:46;45.00;;;15.75;;
5585;SDS011;2815;54.094;12.112;2023-03-01T10:19:17;42.30;;;16.27;;
5585;SDS011;2815;54.094;12.112;2023-03-01T10:24:17;33.95;;;14.13;;
5585;SDS011;2815;54.094;12.112;2023-03-01T10:26:50;34.38;;;15.18;;
5585;SDS011;2815;54.094;12.112;2023-03-01T10:29:23;36.25;;;15.07;;
5585;SDS011;2815;54.094;12.112;2023-03-01T10:31:53;37.13;;;15.10;;
5585;SDS011;2815;54.094;12.112;2023-03-01T10:34:26;37.15;;;15.68;;
5585;SDS011;2815;54.094;12.112;2023-03-01T10:36:56;32.38;;;11.75;;
5585;SDS011;2815;54.094;12.112;2023-03-01T10:39:25;37.40;;;14.63;;
5585;SDS011;2815;54.094;12.112;2023-03-01T10:41:56;35.00;;;14.70;;
5585;SDS011;2815;54.094;12.112;2023-03-01T10:44:35;36.70;;;14.23;;
5585;SDS011;2815;54.094;12.112;2023-03-01T10:47:09;35.13;;;14.00;;
5585;SDS011;2815;54.094;12.112;2023-03-01T10:49:59;37.90;;;15.77;;
5585;SDS011;2815;54.094;12.112;2023-03-01T10:52:29;37.70;;;14.80;;
5585;SDS011;2815;54.094;12.112;2023-03-01T10:54:59;40.42;;;15.10;;
5585;SDS011;2815;54.094;12.112;2023-03-01T10:57:33;42.10;;;15.63;;
5585;SDS011;2815;54.094;12.112;2023-03-01T11:00:17;38.17;;;15.07;;
5585;SDS011;2815;54.094;12.112;2023-03-01T11:05:50;35.83;;;13.35;;
5585;SDS011;2815;54.094;12.112;2023-03-01T11:08:36;39.60;;;15.10;;
5585;SDS011;2815;54.094;12.112;2023-03-01T11:11:20;39.55;;;14.75;;
5585;SDS011;2815;54.094;12.112;2023-03-01T11:13:56;41.22;;;14.52;;
5585;SDS011;2815;54.094;12.112;2023-03-01T11:16:27;39.60;;;15.02;;
5585;SDS011;2815;54.094;12.112;2023-03-01T11:18:58;38.28;;;14.63;;
5585;SDS011;2815;54.094;12.112;2023-03-01T11:21:28;38.08;;;14.88;;
5585;SDS011;2815;54.094;12.112;2023-03-01T11:23:57;39.10;;;15.75;;
5585;SDS011;2815;54.094;12.112;2023-03-01T11:26:26;40.83;;;16.17;;
5585;SDS011;2815;54.094;12.112;2023-03-01T11:28:58;40.25;;;15.82;;
5585;SDS011;2815;54.094;12.112;2023-03-01T11:31:30;46.50;;;17.05;;
5585;SDS011;2815;54.094;12.112;2023-03-01T11:34:00;44.83;;;16.00;;
5585;SDS011;2815;54.094;12.112;2023-03-01T11:36:35;43.20;;;16.33;;
5585;SDS011;2815;54.094;12.112;2023-03-01T11:39:11;41.22;;;16.00;;
5585;SDS011;2815;54.094;12.112;2023-03-01T11:41:45;39.08;;;15.60;;
5585;SDS011;2815;54.094;12.112;2023-03-01T11:44:20;43.28;;;16.58;;
5585;SDS011;2815;54.094;12.112;2023-03-01T11:46:54;39.35;;;14.88;;
5585;SDS011;2815;54.094;12.112;2023-03-01T11:49:34;36.35;;;14.02;;
5585;SDS011;2815;54.094;12.112;2023-03-01T11:52:17;37.85;;;14.20;;
5585;SDS011;2815;54.094;12.112;2023-03-01T11:54:53;46.60;;;15.95;;
5585;SDS011;2815;54.094;12.112;2023-03-01T11:57:34;43.92;;;14.93;;
5585;SDS011;2815;54.094;12.112;2023-03-01T12:00:23;44.45;;;16.83;;
5585;SDS011;2815;54.094;12.112;2023-03-01T12:03:13;39.67;;;15.48;;
5585;SDS011;2815;54.094;12.112;2023-03-01T12:08:53;40.90;;;15.45;;
5585;SDS011;2815;54.094;12.112;2023-03-01T12:11:29;35.33;;;14.27;;
5585;SDS011;2815;54.094;12.112;2023-03-01T12:14:13;38.83;;;15.50;;
5585;SDS011;2815;54.094;12.112;2023-03-01T12:16:59;36.25;;;14.65;;
5585;SDS011;2815;54.094;12.112;2023-03-01T12:19:40;35.60;;;14.77;;
5585;SDS011;2815;54.094;12.112;2023-03-01T12:22:20;37.72;;;13.93;;
5585;SDS011;2815;54.094;12.112;2023-03-01T12:24:58;38.90;;;16.10;;
5585;SDS011;2815;54.094;12.112;2023-03-01T12:27:51;38.40;;;13.77;;
5585;SDS011;2815;54.094;12.112;2023-03-01T12:30:45;39.97;;;14.40;;
5585;SDS011;2815;54.094;12.112;2023-03-01T12:33:25;39.50;;;14.23;;
5585;SDS011;2815;54.094;12.112;2023-03-01T12:38:56;41.72;;;14.05;;
5585;SDS011;2815;54.094;12.112;2023-03-01T12:41:37;41.50;;;14.73;;
5585;SDS011;2815;54.094;12.112;2023-03-01T12:44:13;35.47;;;13.55;;
5585;SDS011;2815;54.094;12.112;2023-03-01T12:46:50;37.10;;;12.80;;
5585;SDS011;2815;54.094;12.112;2023-03-01T12:49:24;28.38;;;11.43;;
5585;SDS011;2815;54.094;12.112;2023-03-01T12:51:57;33.65;;;13.32;;
5585;SDS011;2815;54.094;12.112;2023-03-01T12:54:27;37.78;;;13.52;;
5585;SDS011;2815;54.094;12.112;2023-03-01T12:56:57;39.63;;;13.15;;
5585;SDS011;2815;54.094;12.112;2023-03-01T12:59:30;37.78;;;13.73;;
5585;SDS011;2815;54.094;12.112;2023-03-01T13:02:04;28.15;;;11.15;;
5585;SDS011;2815;54.094;12.112;2023-03-01T13:04:44;31.77;;;12.18;;
5585;SDS011;2815;54.094;12.112;2023-03-01T13:07:22;35.92;;;14.23;;
5585;SDS011;2815;54.094;12.112;2023-03-01T13:09:55;38.53;;;13.43;;
5585;SDS011;2815;54.094;12.112;2023-03-01T13:12:42;28.27;;;12.73;;
5585;SDS011;2815;54.094;12.112;2023-03-01T13:15:29;41.30;;;12.35;;
5585;SDS011;2815;54.094;12.112;2023-03-01T13:17:59;38.17;;;14.02;;
5585;SDS011;2815;54.094;12.112;2023-03-01T13:20:34;36.15;;;13.40;;
5585;SDS011;2815;54.094;12.112;2023-03-01T13:23:13;36.70;;;11.98;;
5585;SDS011;2815;54.094;12.112;2023-03-01T13:26:03;32.40;;;12.68;;
5585;SDS011;2815;54.094;12.112;2023-03-01T13:34:40;36.72;;;14.02;;
5585;SDS011;2815;54.094;12.112;2023-03-01T13:37:31;34.53;;;13.82;;
5585;SDS011;2815;54.094;12.112;2023-03-01T13:40:02;30.88;;;13.57;;
5585;SDS011;2815;54.094;12.112;2023-03-01T13:42:34;37.95;;;15.32;;
5585;SDS011;2815;54.094;12.112;2023-03-01T13:45:14;37.47;;;14.20;;
5585;SDS011;2815;54.094;12.112;2023-03-01T13:47:56;31.52;;;12.77;;
5585;SDS011;2815;54.094;12.112;2023-03-01T13:50:27;32.30;;;13.93;;
5585;SDS011;2815;54.094;12.112;2023-03-01T13:52:58;33.03;;;13.30;;
5585;SDS011;2815;54.094;12.112;2023-03-01T13:55:31;36.03;;;14.20;;
5585;SDS011;2815;54.094;12.112;2023-03-01T13:58:05;41.28;;;14.35;;
5585;SDS011;2815;54.094;12.112;2023-03-01T14:00:43;35.92;;;13.35;;
5585;SDS011;2815;54.094;12.112;2023-03-01T14:03:12;41.17;;;15.13;;
5585;SDS011;2815;54.094;12.112;2023-03-01T14:05:43;41.70;;;15.23;;
5585;SDS011;2815;54.094;12.112;2023-03-01T14:08:40;40.72;;;15.45;;
5585;SDS011;2815;54.094;12.112;2023-03-01T14:11:15;43.65;;;17.60;;
5585;SDS011;2815;54.094;12.112;2023-03-01T14:16:25;42.10;;;14.57;;
5585;SDS011;2815;54.094;12.112;2023-03-01T14:19:05;36.33;;;12.20;;
5585;SDS011;2815;54.094;12.112;2023-03-01T14:21:58;31.00;;;11.77;;
5585;SDS011;2815;54.094;12.112;2023-03-01T14:24:32;34.67;;;13.50;;
5585;SDS011;2815;54.094;12.112;2023-03-01T14:27:03;36.38;;;12.90;;
5585;SDS011;2815;54.094;12.112;2023-03-01T14:29:33;38.50;;;13.60;;
5585;SDS011;2815;54.094;12.112;2023-03-01T14:32:10;35.78;;;12.38;;
5585;SDS011;2815;54.094;12.112;2023-03-01T14:34:42;31.77;;;11.10;;
5585;SDS011;2815;54.094;12.112;2023-03-01T14:37:11;37.55;;;12.80;;
5585;SDS011;2815;54.094;12.112;2023-03-01T14:39:48;31.52;;;11.05;;
5585;SDS011;2815;54.094;12.112;2023-03-01T14:42:16;32.95;;;11.35;;
5585;SDS011;2815;54.094;12.112;2023-03-01T14:44:45;31.58;;;11.40;;
5585;SDS011;2815;54.094;12.112;2023-03-01T14:47:14;23.23;;;9.30;;
5585;SDS011;2815;54.094;12.112;2023-03-01T14:49:43;28.02;;;10.98;;
5585;SDS011;2815;54.094;12.112;2023-03-01T14:52:18;27.27;;;11.00;;
5585;SDS011;2815;54.094;12.112;2023-03-01T14:54:50;26.52;;;10.35;;
5585;SDS011;2815;54.094;12.112;2023-03-01T14:57:20;30.27;;;10.52;;
5585;SDS011;2815;54.094;12.112;2023-03-01T14:59:49;27.92;;;9.88;;
5585;SDS011;2815;54.094;12.112;2023-03-01T15:02:19;23.13;;;10.05;;
5585;SDS011;2815;54.094;12.112;2023-03-01T15:04:50;31.40;;;10.48;;
5585;SDS011;2815;54.094;12.112;2023-03-01T15:07:19;25.30;;;9.70;;
5585;SDS011;2815;54.094;12.112;2023-03-01T15:09:47;24.70;;;9.68;;
5585;SDS011;2815;54.094;12.112;2023-03-01T15:15:22;23.30;;;9.70;;
5585;SDS011;2815;54.094;12.112;2023-03-01T15:17:58;30.42;;;11.02;;
5585;SDS011;2815;54.094;12.112;2023-03-01T15:20:27;31.40;;;11.23;;
5585;SDS011;2815;54.094;12.112;2023-03-01T15:22:56;28.13;;;10.00;;
5585;SDS011;2815;54.094;12.112;2023-03-01T15:25:26;24.88;;;9.82;;
5585;SDS011;2815;54.094;12.112;2023-03-01T15:27:57;29.33;;;9.77;;
5585;SDS011;2815;54.094;12.112;2023-03-01T15:30:27;23.38;;;9.77;;
5585;SDS011;2815;54.094;12.112;2023-03-01T15:33:17;28.30;;;11.10;;
5585;SDS011;2815;54.094;12.112;2023-03-01T15:35:56;26.13;;;9.85;;